PWSweather.com
Personal Weather Stations
Station Observations
KWAGIGHA17
Gig Harbor, WA 98332

Gig Harbor, WA 98332

Lat: 47.35323, Lon: -122.58817

Elevation: 318

Station Type: Davis VP2 Wireless

http://www.gigharborweather.com

Latest ConditionsUpdated 4:10:01 PM PST Sunday, Jan 22, 2017
Currently Today's Max Today's Min Today's Average
Temperature 43.9°F6.6°C 43.9°F6.6°C 38.2°F3.4°C 40.9°F4.9°C
Dew Point 40.9°F4.9°C 40.9°F4.9°C 35.5°F1.9°C 38.0°F3.3°C
Winds Calm Calm 1.2 mph NW1.9 kmh NW - 0.1 mph 0.2 kmh
Wind Gusts -- 3.5 mph5.6 kmh - -
Humidity 89% 90% 89% 90%
Pressure 29.54 in1000.3 mb 29.58 in1001.7 mb 29.37 in994.6 mb -
Precipitation - 0.01 in0.3 mm - -
Hour Temp Dew Point Humidity Winds Wind Gusts Pressure Precip Precip Rate Daily Precip Total
04:10 PM 43.9°F6.6°C 40.9°F4.9°C 89% Calm Calm -- 29.54 in1000.3 mb - 0.01 in0.3 mm 0.01 in0.3 mm
04:00 PM 43.9°F6.6°C 40.9°F4.9°C 89% Calm Calm -- 29.54 in1000.3 mb - 0.00 in0.0 mm 0.00 in0.0 mm
03:50 PM 43.9°F6.6°C 40.9°F4.9°C 89% Calm Calm -- 29.54 in1000.3 mb - 0.00 in0.0 mm 0.00 in0.0 mm
03:40 PM 43.9°F6.6°C 40.9°F4.9°C 89% Calm Calm -- 29.54 in1000.3 mb - 0.00 in0.0 mm 0.00 in0.0 mm
03:30 PM 43.9°F6.6°C 40.9°F4.9°C 89% Calm Calm -- 29.54 in1000.3 mb - 0.00 in0.0 mm 0.00 in0.0 mm
03:20 PM 43.9°F6.6°C 40.8°F4.9°C 89% Calm Calm -- 29.54 in1000.3 mb - 0.00 in0.0 mm 0.00 in0.0 mm
03:10 PM 43.8°F6.6°C 40.8°F4.9°C 89% Calm Calm -- 29.54 in1000.3 mb - 0.00 in0.0 mm 0.00 in0.0 mm
03:00 PM 43.7°F6.5°C 40.7°F4.8°C 89% Calm Calm -- 29.54 in1000.3 mb - 0.00 in0.0 mm 0.00 in0.0 mm
02:50 PM 43.8°F6.6°C 40.8°F4.9°C 89% Calm Calm -- 29.54 in1000.3 mb - 0.00 in0.0 mm 0.00 in0.0 mm
02:40 PM 43.8°F6.6°C 40.8°F4.9°C 89% Calm Calm -- 29.54 in1000.3 mb - 0.00 in0.0 mm 0.00 in0.0 mm
02:30 PM 43.7°F6.5°C 40.7°F4.8°C 89% Calm Calm -- 29.53 in1000.0 mb - 0.00 in0.0 mm 0.00 in0.0 mm
02:20 PM 43.6°F6.4°C 40.6°F4.8°C 89% Calm Calm -- 29.52 in999.7 mb - 0.00 in0.0 mm 0.00 in0.0 mm
02:10 PM 43.5°F6.4°C 40.8°F4.9°C 90% Calm Calm -- 29.52 in999.7 mb - 0.00 in0.0 mm 0.00 in0.0 mm
02:00 PM 43.4°F6.3°C 40.4°F4.7°C 89% Calm Calm -- 29.52 in999.7 mb - 0.00 in0.0 mm 0.00 in0.0 mm
01:50 PM 43.3°F6.3°C 40.3°F4.6°C 89% Calm Calm -- 29.52 in999.7 mb - 0.00 in0.0 mm 0.00 in0.0 mm
01:40 PM 43.3°F6.3°C 40.3°F4.6°C 89% Calm Calm -- 29.52 in999.7 mb - 0.00 in0.0 mm 0.00 in0.0 mm
01:30 PM 43.1°F6.2°C 40.1°F4.5°C 89% Calm Calm -- 29.52 in999.7 mb - 0.00 in0.0 mm 0.00 in0.0 mm
01:20 PM 43.0°F6.1°C 40.0°F4.4°C 89% Calm Calm -- 29.53 in1000.0 mb - 0.00 in0.0 mm 0.00 in0.0 mm
01:10 PM 42.9°F6.1°C 39.9°F4.4°C 89% Calm Calm -- 29.53 in1000.0 mb - 0.00 in0.0 mm 0.00 in0.0 mm
01:00 PM 42.8°F6.0°C 39.8°F4.3°C 89% Calm Calm -- 29.54 in1000.3 mb - 0.00 in0.0 mm 0.00 in0.0 mm
12:50 PM 42.7°F5.9°C 39.7°F4.3°C 89% Calm Calm -- 29.53 in1000.0 mb - 0.00 in0.0 mm 0.00 in0.0 mm
12:40 PM 42.6°F5.9°C 39.6°F4.2°C 89% Calm Calm -- 29.53 in1000.0 mb - 0.00 in0.0 mm 0.00 in0.0 mm
12:30 PM 42.4°F5.8°C 39.4°F4.1°C 89% Calm Calm -- 29.54 in1000.3 mb - 0.00 in0.0 mm 0.00 in0.0 mm
12:20 PM 42.2°F5.7°C 39.2°F4.0°C 89% Calm Calm -- 29.53 in1000.0 mb - 0.00 in0.0 mm 0.00 in0.0 mm
12:10 PM 42.0°F5.6°C 39.0°F3.9°C 89% Calm Calm -- 29.53 in1000.0 mb - 0.00 in0.0 mm 0.00 in0.0 mm
12:00 PM 41.9°F5.5°C 38.9°F3.8°C 89% Calm Calm -- 29.53 in1000.0 mb - 0.00 in0.0 mm 0.00 in0.0 mm
11:50 AM 41.8°F5.4°C 38.8°F3.8°C 89% Calm Calm -- 29.52 in999.7 mb - 0.00 in0.0 mm 0.00 in0.0 mm
11:40 AM 41.7°F5.4°C 39.0°F3.9°C 90% Calm Calm -- 29.52 in999.7 mb - 0.00 in0.0 mm 0.00 in0.0 mm
11:30 AM 41.6°F5.3°C 38.6°F3.7°C 89% Calm Calm -- 29.52 in999.7 mb - 0.00 in0.0 mm 0.00 in0.0 mm
11:20 AM 41.5°F5.3°C 38.5°F3.6°C 89% Calm Calm -- 29.52 in999.7 mb - 0.00 in0.0 mm 0.00 in0.0 mm
11:10 AM 41.5°F5.3°C 38.5°F3.6°C 89% Calm Calm -- 29.52 in999.7 mb - 0.00 in0.0 mm 0.00 in0.0 mm
11:00 AM 41.4°F5.2°C 38.4°F3.6°C 89% Calm Calm -- 29.51 in999.3 mb - 0.00 in0.0 mm 0.00 in0.0 mm
10:50 AM 41.3°F5.2°C 38.6°F3.7°C 90% Calm Calm -- 29.51 in999.3 mb - 0.00 in0.0 mm 0.00 in0.0 mm
10:40 AM 41.2°F5.1°C 38.5°F3.6°C 90% Calm Calm -- 29.51 in999.3 mb - 0.00 in0.0 mm 0.00 in0.0 mm
10:30 AM 41.0°F5.0°C 38.0°F3.3°C 89% Calm Calm -- 29.50 in999.0 mb - 0.00 in0.0 mm 0.00 in0.0 mm
10:20 AM 40.9°F4.9°C 37.9°F3.3°C 89% Calm Calm -- 29.49 in998.6 mb - 0.00 in0.0 mm 0.00 in0.0 mm
10:10 AM 40.8°F4.9°C 37.8°F3.2°C 89% Calm Calm -- 29.49 in998.6 mb - 0.00 in0.0 mm 0.00 in0.0 mm
10:00 AM 40.7°F4.8°C 38.0°F3.3°C 90% Calm Calm -- 29.49 in998.6 mb - 0.00 in0.0 mm 0.00 in0.0 mm
09:50 AM 40.6°F4.8°C 37.9°F3.3°C 90% Calm Calm -- 29.48 in998.3 mb - 0.00 in0.0 mm 0.00 in0.0 mm
09:40 AM 40.5°F4.7°C 37.5°F3.1°C 89% 1.2 mph S1.9 kmh S 2.3 mph3.7 kmh 29.48 in998.3 mb - 0.00 in0.0 mm 0.00 in0.0 mm
09:30 AM 40.4°F4.7°C 37.4°F3.0°C 89% Calm Calm 1.2 mph1.9 kmh 29.48 in998.3 mb - 0.00 in0.0 mm 0.00 in0.0 mm
09:20 AM 40.2°F4.6°C 37.5°F3.1°C 90% 1.2 mph S1.9 kmh S 1.2 mph1.9 kmh 29.47 in998.0 mb - 0.00 in0.0 mm 0.00 in0.0 mm
09:10 AM 40.1°F4.5°C 37.4°F3.0°C 90% Calm Calm -- 29.46 in997.6 mb - 0.00 in0.0 mm 0.00 in0.0 mm
09:00 AM 40.1°F4.5°C 37.4°F3.0°C 90% Calm Calm -- 29.45 in997.3 mb - 0.00 in0.0 mm 0.00 in0.0 mm
08:50 AM 40.0°F4.4°C 37.3°F2.9°C 90% Calm Calm -- 29.44 in997.0 mb - 0.00 in0.0 mm 0.00 in0.0 mm
08:40 AM 39.9°F4.4°C 36.9°F2.7°C 89% Calm Calm -- 29.43 in996.6 mb - 0.00 in0.0 mm 0.00 in0.0 mm
08:30 AM 39.9°F4.4°C 36.9°F2.7°C 89% Calm Calm -- 29.43 in996.6 mb - 0.00 in0.0 mm 0.00 in0.0 mm
08:20 AM 39.8°F4.3°C 36.8°F2.7°C 89% Calm Calm 1.2 mph1.9 kmh 29.42 in996.3 mb - 0.00 in0.0 mm 0.00 in0.0 mm
08:10 AM 39.8°F4.3°C 36.8°F2.7°C 89% Calm Calm -- 29.41 in995.9 mb - 0.00 in0.0 mm 0.00 in0.0 mm
08:00 AM 39.8°F4.3°C 36.8°F2.7°C 89% Calm Calm -- 29.41 in995.9 mb - 0.00 in0.0 mm 0.00 in0.0 mm
07:50 AM 39.7°F4.3°C 37.0°F2.8°C 90% Calm Calm -- 29.41 in995.9 mb - 0.00 in0.0 mm 0.00 in0.0 mm
07:40 AM 39.6°F4.2°C 36.9°F2.7°C 90% Calm Calm -- 29.41 in995.9 mb - 0.00 in0.0 mm 0.00 in0.0 mm
07:30 AM 39.3°F4.1°C 36.3°F2.4°C 89% 1.2 mph S1.9 kmh S 2.3 mph3.7 kmh 29.41 in995.9 mb - 0.00 in0.0 mm 0.00 in0.0 mm
07:20 AM 39.0°F3.9°C 36.3°F2.4°C 90% Calm Calm -- 29.40 in995.6 mb - 0.00 in0.0 mm 0.00 in0.0 mm
07:10 AM 38.7°F3.7°C 36.0°F2.2°C 90% Calm Calm -- 29.40 in995.6 mb - 0.00 in0.0 mm 0.00 in0.0 mm
07:00 AM 38.4°F3.6°C 35.8°F2.1°C 90% 1.2 mph N1.9 kmh N 3.5 mph5.6 kmh 29.39 in995.3 mb - 0.00 in0.0 mm 0.00 in0.0 mm
06:50 AM 38.4°F3.6°C 35.7°F2.1°C 90% Calm Calm -- 29.39 in995.3 mb - 0.00 in0.0 mm 0.00 in0.0 mm
06:40 AM 38.4°F3.6°C 35.7°F2.1°C 90% Calm Calm -- 29.39 in995.3 mb - 0.00 in0.0 mm 0.00 in0.0 mm
06:30 AM 38.5°F3.6°C 35.8°F2.1°C 90% Calm Calm -- 29.37 in994.6 mb - 0.00 in0.0 mm 0.00 in0.0 mm
06:20 AM 38.5°F3.6°C 35.8°F2.1°C 90% Calm Calm 2.3 mph3.7 kmh 29.38 in994.9 mb - 0.00 in0.0 mm 0.00 in0.0 mm
06:10 AM 38.4°F3.6°C 35.7°F2.1°C 90% 1.2 mph N1.9 kmh N 2.3 mph3.7 kmh 29.38 in994.9 mb - 0.00 in0.0 mm 0.00 in0.0 mm
06:00 AM 38.3°F3.5°C 35.7°F2.1°C 90% Calm Calm -- 29.37 in994.6 mb - 0.00 in0.0 mm 0.00 in0.0 mm
05:50 AM 38.2°F3.4°C 35.5°F1.9°C 90% Calm Calm 1.2 mph1.9 kmh 29.38 in994.9 mb - 0.00 in0.0 mm 0.00 in0.0 mm
05:40 AM 38.2°F3.4°C 35.6°F2.0°C 90% Calm Calm -- 29.39 in995.3 mb - 0.00 in0.0 mm 0.00 in0.0 mm
05:30 AM 38.3°F3.5°C 35.6°F2.0°C 90% Calm Calm -- 29.39 in995.3 mb - 0.00 in0.0 mm 0.00 in0.0 mm
05:20 AM 38.4°F3.6°C 35.7°F2.1°C 90% Calm Calm -- 29.40 in995.6 mb - 0.00 in0.0 mm 0.00 in0.0 mm
05:10 AM 38.4°F3.6°C 35.7°F2.1°C 90% 1.2 mph N1.9 kmh N 1.2 mph1.9 kmh 29.41 in995.9 mb - 0.00 in0.0 mm 0.00 in0.0 mm
05:00 AM 38.4°F3.6°C 35.7°F2.1°C 90% Calm Calm 1.2 mph1.9 kmh 29.41 in995.9 mb - 0.00 in0.0 mm 0.00 in0.0 mm
04:50 AM 38.4°F3.6°C 35.7°F2.1°C 90% Calm Calm -- 29.41 in995.9 mb - 0.00 in0.0 mm 0.00 in0.0 mm
04:40 AM 38.4°F3.6°C 35.7°F2.1°C 90% Calm Calm 3.5 mph5.6 kmh 29.42 in996.3 mb - 0.00 in0.0 mm 0.00 in0.0 mm
04:30 AM 38.4°F3.6°C 35.7°F2.1°C 90% Calm Calm -- 29.42 in996.3 mb - 0.00 in0.0 mm 0.00 in0.0 mm
04:20 AM 38.3°F3.5°C 35.7°F2.1°C 90% Calm Calm -- 29.43 in996.6 mb - 0.00 in0.0 mm 0.00 in0.0 mm
04:10 AM 38.3°F3.5°C 35.6°F2.0°C 90% 1.2 mph NW1.9 kmh NW 2.3 mph3.7 kmh 29.44 in997.0 mb - 0.00 in0.0 mm 0.00 in0.0 mm
04:00 AM 38.3°F3.5°C 35.6°F2.0°C 90% Calm Calm -- 29.44 in997.0 mb - 0.00 in0.0 mm 0.00 in0.0 mm
03:50 AM 38.3°F3.5°C 35.6°F2.0°C 90% Calm Calm -- 29.45 in997.3 mb - 0.00 in0.0 mm 0.00 in0.0 mm
03:40 AM 38.3°F3.5°C 35.6°F2.0°C 90% Calm Calm 1.2 mph1.9 kmh 29.46 in997.6 mb - 0.00 in0.0 mm 0.00 in0.0 mm
03:30 AM 38.5°F3.6°C 35.9°F2.2°C 90% Calm Calm -- 29.46 in997.6 mb - 0.00 in0.0 mm 0.00 in0.0 mm
03:20 AM 38.7°F3.7°C 36.0°F2.2°C 90% Calm Calm -- 29.47 in998.0 mb - 0.00 in0.0 mm 0.00 in0.0 mm
03:10 AM 39.0°F3.9°C 36.3°F2.4°C 90% Calm Calm -- 29.48 in998.3 mb - 0.00 in0.0 mm 0.00 in0.0 mm
03:00 AM 39.2°F4.0°C 36.5°F2.5°C 90% Calm Calm 1.2 mph1.9 kmh 29.48 in998.3 mb - 0.00 in0.0 mm 0.00 in0.0 mm
02:50 AM 39.4°F4.1°C 36.7°F2.6°C 90% Calm Calm -- 29.49 in998.6 mb - 0.00 in0.0 mm 0.00 in0.0 mm
02:40 AM 39.6°F4.2°C 36.9°F2.7°C 90% Calm Calm -- 29.51 in999.3 mb - 0.00 in0.0 mm 0.00 in0.0 mm
02:30 AM 39.9°F4.4°C 37.2°F2.9°C 90% Calm Calm -- 29.52 in999.7 mb - 0.00 in0.0 mm 0.00 in0.0 mm
02:20 AM 40.2°F4.6°C 37.5°F3.1°C 90% Calm Calm -- 29.53 in1000.0 mb - 0.00 in0.0 mm 0.00 in0.0 mm
02:10 AM 40.4°F4.7°C 37.7°F3.2°C 90% Calm Calm -- 29.53 in1000.0 mb - 0.00 in0.0 mm 0.00 in0.0 mm
02:00 AM 40.7°F4.8°C 38.0°F3.3°C 90% Calm Calm -- 29.53 in1000.0 mb - 0.00 in0.0 mm 0.00 in0.0 mm
01:50 AM 41.0°F5.0°C 38.3°F3.5°C 90% Calm Calm -- 29.54 in1000.3 mb - 0.00 in0.0 mm 0.00 in0.0 mm
01:40 AM 41.3°F5.2°C 38.6°F3.7°C 90% Calm Calm -- 29.54 in1000.3 mb - 0.00 in0.0 mm 0.00 in0.0 mm
01:30 AM 41.6°F5.3°C 38.9°F3.8°C 90% Calm Calm -- 29.55 in1000.7 mb - 0.00 in0.0 mm 0.00 in0.0 mm
01:20 AM 41.9°F5.5°C 39.2°F4.0°C 90% Calm Calm -- 29.56 in1001.0 mb - 0.00 in0.0 mm 0.00 in0.0 mm
01:10 AM 42.1°F5.6°C 39.4°F4.1°C 90% Calm Calm -- 29.56 in1001.0 mb - 0.00 in0.0 mm 0.00 in0.0 mm
01:00 AM 42.2°F5.7°C 39.5°F4.2°C 90% Calm Calm -- 29.57 in1001.4 mb - 0.00 in0.0 mm 0.00 in0.0 mm
12:50 AM 42.3°F5.7°C 39.6°F4.2°C 90% Calm Calm -- 29.57 in1001.4 mb - 0.00 in0.0 mm 0.00 in0.0 mm
12:40 AM 42.2°F5.7°C 39.5°F4.2°C 90% Calm Calm -- 29.57 in1001.4 mb - 0.00 in0.0 mm 0.00 in0.0 mm
12:30 AM 42.3°F5.7°C 39.6°F4.2°C 90% Calm Calm -- 29.57 in1001.4 mb - 0.00 in0.0 mm 0.00 in0.0 mm
12:20 AM 42.4°F5.8°C 39.7°F4.3°C 90% Calm Calm -- 29.57 in1001.4 mb - 0.00 in0.0 mm 0.00 in0.0 mm
12:10 AM 42.6°F5.9°C 39.9°F4.4°C 90% Calm Calm -- 29.58 in1001.7 mb - 0.00 in0.0 mm 0.00 in0.0 mm
12:00 AM 42.7°F5.9°C 40.0°F4.4°C 90% Calm Calm -- 29.58 in1001.7 mb - 0.00 in0.0 mm 0.00 in0.0 mm